sensor_id;sensor_type;location;lat;lon;timestamp;P1;durP1;ratioP1;P2;durP2;ratioP2
68273;SDS011;55104;47.356;19.448;2023-06-14T00:01:43;9.73;;;2.60;;
68273;SDS011;55104;47.356;19.448;2023-06-14T00:04:47;8.60;;;2.97;;
68273;SDS011;55104;47.356;19.448;2023-06-14T00:07:50;10.70;;;3.03;;
68273;SDS011;55104;47.356;19.448;2023-06-14T00:10:55;12.67;;;3.17;;
68273;SDS011;55104;47.356;19.448;2023-06-14T00:13:57;9.30;;;3.08;;
68273;SDS011;55104;47.356;19.448;2023-06-14T00:16:59;10.90;;;3.40;;
68273;SDS011;55104;47.356;19.448;2023-06-14T00:20:02;9.00;;;3.22;;
68273;SDS011;55104;47.356;19.448;2023-06-14T00:23:07;10.80;;;3.25;;
68273;SDS011;55104;47.356;19.448;2023-06-14T00:26:10;11.60;;;3.17;;
68273;SDS011;55104;47.356;19.448;2023-06-14T00:29:13;9.88;;;3.33;;
68273;SDS011;55104;47.356;19.448;2023-06-14T00:32:15;11.57;;;4.07;;
68273;SDS011;55104;47.356;19.448;2023-06-14T00:35:17;9.15;;;3.67;;
68273;SDS011;55104;47.356;19.448;2023-06-14T00:38:20;11.15;;;3.83;;
68273;SDS011;55104;47.356;19.448;2023-06-14T00:41:22;8.47;;;3.00;;
68273;SDS011;55104;47.356;19.448;2023-06-14T00:44:24;10.55;;;3.17;;
68273;SDS011;55104;47.356;19.448;2023-06-14T00:47:26;8.85;;;3.45;;
68273;SDS011;55104;47.356;19.448;2023-06-14T00:50:29;10.35;;;3.83;;
68273;SDS011;55104;47.356;19.448;2023-06-14T00:53:33;8.98;;;3.42;;
68273;SDS011;55104;47.356;19.448;2023-06-14T00:56:37;14.17;;;4.50;;
68273;SDS011;55104;47.356;19.448;2023-06-14T00:59:45;10.90;;;3.65;;
68273;SDS011;55104;47.356;19.448;2023-06-14T01:02:48;10.30;;;3.85;;
68273;SDS011;55104;47.356;19.448;2023-06-14T01:05:53;10.35;;;3.42;;
68273;SDS011;55104;47.356;19.448;2023-06-14T01:13:01;10.68;;;4.10;;
68273;SDS011;55104;47.356;19.448;2023-06-14T01:15:59;12.18;;;4.18;;
68273;SDS011;55104;47.356;19.448;2023-06-14T01:19:02;13.75;;;4.45;;
68273;SDS011;55104;47.356;19.448;2023-06-14T01:22:05;14.30;;;4.32;;
68273;SDS011;55104;47.356;19.448;2023-06-14T01:25:07;10.83;;;3.70;;
68273;SDS011;55104;47.356;19.448;2023-06-14T01:28:10;11.95;;;4.28;;
68273;SDS011;55104;47.356;19.448;2023-06-14T01:31:16;12.90;;;3.95;;
68273;SDS011;55104;47.356;19.448;2023-06-14T01:34:21;13.00;;;4.22;;
68273;SDS011;55104;47.356;19.448;2023-06-14T01:37:25;13.65;;;4.60;;
68273;SDS011;55104;47.356;19.448;2023-06-14T01:40:28;12.90;;;4.27;;
68273;SDS011;55104;47.356;19.448;2023-06-14T01:43:31;9.70;;;3.45;;
68273;SDS011;55104;47.356;19.448;2023-06-14T01:46:38;11.27;;;4.07;;
68273;SDS011;55104;47.356;19.448;2023-06-14T01:49:41;10.18;;;3.65;;
68273;SDS011;55104;47.356;19.448;2023-06-14T01:52:44;11.98;;;3.85;;
68273;SDS011;55104;47.356;19.448;2023-06-14T01:55:46;11.83;;;4.17;;
68273;SDS011;55104;47.356;19.448;2023-06-14T01:58:50;14.75;;;4.53;;
68273;SDS011;55104;47.356;19.448;2023-06-14T02:01:54;12.75;;;4.72;;
68273;SDS011;55104;47.356;19.448;2023-06-14T02:04:56;12.55;;;4.00;;
68273;SDS011;55104;47.356;19.448;2023-06-14T02:07:59;13.38;;;4.35;;
68273;SDS011;55104;47.356;19.448;2023-06-14T02:11:01;15.17;;;4.47;;
68273;SDS011;55104;47.356;19.448;2023-06-14T02:14:03;11.88;;;4.25;;
68273;SDS011;55104;47.356;19.448;2023-06-14T02:17:05;16.98;;;4.68;;
68273;SDS011;55104;47.356;19.448;2023-06-14T02:20:08;11.13;;;3.80;;
68273;SDS011;55104;47.356;19.448;2023-06-14T02:23:11;13.07;;;4.55;;
68273;SDS011;55104;47.356;19.448;2023-06-14T02:26:13;10.97;;;4.07;;
68273;SDS011;55104;47.356;19.448;2023-06-14T02:29:15;10.90;;;4.38;;
68273;SDS011;55104;47.356;19.448;2023-06-14T02:32:17;14.10;;;4.80;;
68273;SDS011;55104;47.356;19.448;2023-06-14T02:35:19;9.90;;;3.72;;
68273;SDS011;55104;47.356;19.448;2023-06-14T02:38:23;12.82;;;4.60;;
68273;SDS011;55104;47.356;19.448;2023-06-14T02:41:26;14.07;;;4.70;;
68273;SDS011;55104;47.356;19.448;2023-06-14T02:44:29;12.43;;;4.13;;
68273;SDS011;55104;47.356;19.448;2023-06-14T02:47:34;13.75;;;4.40;;
68273;SDS011;55104;47.356;19.448;2023-06-14T02:50:36;13.10;;;4.47;;
68273;SDS011;55104;47.356;19.448;2023-06-14T02:53:38;11.18;;;3.85;;
68273;SDS011;55104;47.356;19.448;2023-06-14T02:56:40;10.53;;;3.90;;
68273;SDS011;55104;47.356;19.448;2023-06-14T02:59:43;11.18;;;4.22;;
68273;SDS011;55104;47.356;19.448;2023-06-14T03:02:45;13.00;;;4.05;;
68273;SDS011;55104;47.356;19.448;2023-06-14T03:05:48;14.50;;;4.35;;
68273;SDS011;55104;47.356;19.448;2023-06-14T03:08:54;12.57;;;4.53;;
68273;SDS011;55104;47.356;19.448;2023-06-14T03:12:01;13.40;;;3.73;;
68273;SDS011;55104;47.356;19.448;2023-06-14T03:15:04;13.73;;;4.40;;
68273;SDS011;55104;47.356;19.448;2023-06-14T03:18:11;13.85;;;4.97;;
68273;SDS011;55104;47.356;19.448;2023-06-14T03:21:14;11.95;;;3.83;;
68273;SDS011;55104;47.356;19.448;2023-06-14T03:24:19;13.73;;;4.35;;
68273;SDS011;55104;47.356;19.448;2023-06-14T03:27:21;13.47;;;4.33;;
68273;SDS011;55104;47.356;19.448;2023-06-14T03:30:24;11.63;;;4.20;;
68273;SDS011;55104;47.356;19.448;2023-06-14T03:33:27;13.73;;;4.35;;
68273;SDS011;55104;47.356;19.448;2023-06-14T03:36:30;10.23;;;3.58;;
68273;SDS011;55104;47.356;19.448;2023-06-14T03:39:33;15.38;;;4.72;;
68273;SDS011;55104;47.356;19.448;2023-06-14T03:42:36;15.50;;;4.50;;
68273;SDS011;55104;47.356;19.448;2023-06-14T03:45:39;12.82;;;4.75;;
68273;SDS011;55104;47.356;19.448;2023-06-14T03:48:43;12.88;;;4.50;;
68273;SDS011;55104;47.356;19.448;2023-06-14T03:51:45;13.50;;;3.97;;
68273;SDS011;55104;47.356;19.448;2023-06-14T03:54:56;13.15;;;4.50;;
68273;SDS011;55104;47.356;19.448;2023-06-14T03:58:19;14.17;;;4.23;;
68273;SDS011;55104;47.356;19.448;2023-06-14T04:01:21;12.85;;;4.30;;
68273;SDS011;55104;47.356;19.448;2023-06-14T04:04:26;12.68;;;4.03;;
68273;SDS011;55104;47.356;19.448;2023-06-14T04:07:32;11.68;;;3.90;;
68273;SDS011;55104;47.356;19.448;2023-06-14T04:10:43;13.23;;;3.92;;
68273;SDS011;55104;47.356;19.448;2023-06-14T04:13:45;10.67;;;3.87;;
68273;SDS011;55104;47.356;19.448;2023-06-14T04:16:47;12.02;;;4.13;;
68273;SDS011;55104;47.356;19.448;2023-06-14T04:19:52;11.30;;;3.90;;
68273;SDS011;55104;47.356;19.448;2023-06-14T04:22:56;12.18;;;4.00;;
68273;SDS011;55104;47.356;19.448;2023-06-14T04:25:59;14.05;;;4.28;;
68273;SDS011;55104;47.356;19.448;2023-06-14T04:29:04;11.80;;;3.97;;
68273;SDS011;55104;47.356;19.448;2023-06-14T04:32:14;11.57;;;3.28;;
68273;SDS011;55104;47.356;19.448;2023-06-14T04:35:17;9.23;;;3.55;;
68273;SDS011;55104;47.356;19.448;2023-06-14T04:38:20;11.88;;;3.85;;
68273;SDS011;55104;47.356;19.448;2023-06-14T04:41:27;11.32;;;3.58;;
68273;SDS011;55104;47.356;19.448;2023-06-14T04:44:30;13.77;;;3.57;;
68273;SDS011;55104;47.356;19.448;2023-06-14T04:47:36;9.85;;;3.20;;
68273;SDS011;55104;47.356;19.448;2023-06-14T04:50:41;13.05;;;3.00;;
68273;SDS011;55104;47.356;19.448;2023-06-14T04:53:44;7.80;;;2.38;;
68273;SDS011;55104;47.356;19.448;2023-06-14T04:56:47;11.07;;;3.60;;
68273;SDS011;55104;47.356;19.448;2023-06-14T04:59:49;10.17;;;2.97;;
68273;SDS011;55104;47.356;19.448;2023-06-14T05:02:56;9.73;;;3.03;;
68273;SDS011;55104;47.356;19.448;2023-06-14T05:06:00;11.90;;;3.45;;
68273;SDS011;55104;47.356;19.448;2023-06-14T05:09:02;10.57;;;2.72;;
68273;SDS011;55104;47.356;19.448;2023-06-14T05:12:05;8.15;;;3.17;;
68273;SDS011;55104;47.356;19.448;2023-06-14T05:15:09;10.73;;;3.10;;
68273;SDS011;55104;47.356;19.448;2023-06-14T05:18:12;8.90;;;2.88;;
68273;SDS011;55104;47.356;19.448;2023-06-14T05:21:15;14.93;;;3.00;;
68273;SDS011;55104;47.356;19.448;2023-06-14T05:24:19;7.65;;;2.78;;
68273;SDS011;55104;47.356;19.448;2023-06-14T05:27:22;6.00;;;2.28;;
68273;SDS011;55104;47.356;19.448;2023-06-14T05:30:25;7.10;;;2.70;;
68273;SDS011;55104;47.356;19.448;2023-06-14T05:33:27;7.70;;;2.50;;
68273;SDS011;55104;47.356;19.448;2023-06-14T05:36:30;9.40;;;2.92;;
68273;SDS011;55104;47.356;19.448;2023-06-14T05:39:32;8.45;;;2.80;;
68273;SDS011;55104;47.356;19.448;2023-06-14T05:42:34;9.52;;;2.40;;
68273;SDS011;55104;47.356;19.448;2023-06-14T05:45:36;7.07;;;2.53;;
68273;SDS011;55104;47.356;19.448;2023-06-14T05:48:38;7.90;;;2.80;;
68273;SDS011;55104;47.356;19.448;2023-06-14T05:51:40;6.68;;;2.78;;
68273;SDS011;55104;47.356;19.448;2023-06-14T05:54:42;10.05;;;3.33;;
68273;SDS011;55104;47.356;19.448;2023-06-14T05:57:44;8.65;;;3.08;;
68273;SDS011;55104;47.356;19.448;2023-06-14T06:00:46;7.83;;;3.00;;
68273;SDS011;55104;47.356;19.448;2023-06-14T06:03:48;8.80;;;2.85;;
68273;SDS011;55104;47.356;19.448;2023-06-14T06:06:50;7.38;;;3.05;;
68273;SDS011;55104;47.356;19.448;2023-06-14T06:09:52;7.60;;;2.83;;
68273;SDS011;55104;47.356;19.448;2023-06-14T06:12:54;7.93;;;2.92;;
68273;SDS011;55104;47.356;19.448;2023-06-14T06:15:57;7.80;;;2.97;;
68273;SDS011;55104;47.356;19.448;2023-06-14T06:18:59;8.98;;;2.70;;
68273;SDS011;55104;47.356;19.448;2023-06-14T06:22:01;7.35;;;2.88;;
68273;SDS011;55104;47.356;19.448;2023-06-14T06:25:06;8.60;;;2.60;;
68273;SDS011;55104;47.356;19.448;2023-06-14T06:28:09;9.07;;;2.58;;
68273;SDS011;55104;47.356;19.448;2023-06-14T06:31:11;8.30;;;2.70;;
68273;SDS011;55104;47.356;19.448;2023-06-14T06:34:13;8.32;;;2.28;;
68273;SDS011;55104;47.356;19.448;2023-06-14T06:37:16;8.43;;;3.03;;
68273;SDS011;55104;47.356;19.448;2023-06-14T06:40:18;6.57;;;2.45;;
68273;SDS011;55104;47.356;19.448;2023-06-14T06:43:20;8.10;;;2.50;;
68273;SDS011;55104;47.356;19.448;2023-06-14T06:46:23;9.17;;;2.87;;
68273;SDS011;55104;47.356;19.448;2023-06-14T06:49:26;8.50;;;2.80;;
68273;SDS011;55104;47.356;19.448;2023-06-14T06:52:28;8.45;;;2.90;;
68273;SDS011;55104;47.356;19.448;2023-06-14T06:55:30;8.60;;;3.10;;
68273;SDS011;55104;47.356;19.448;2023-06-14T06:58:32;8.77;;;2.80;;
68273;SDS011;55104;47.356;19.448;2023-06-14T07:01:35;7.70;;;2.70;;
68273;SDS011;55104;47.356;19.448;2023-06-14T07:04:38;8.55;;;3.35;;
68273;SDS011;55104;47.356;19.448;2023-06-14T07:07:40;8.45;;;3.08;;
68273;SDS011;55104;47.356;19.448;2023-06-14T07:10:42;7.88;;;2.75;;
68273;SDS011;55104;47.356;19.448;2023-06-14T07:13:44;7.78;;;2.88;;
68273;SDS011;55104;47.356;19.448;2023-06-14T07:16:47;7.47;;;2.83;;
68273;SDS011;55104;47.356;19.448;2023-06-14T07:19:49;10.38;;;2.97;;
68273;SDS011;55104;47.356;19.448;2023-06-14T07:22:53;7.65;;;2.30;;
68273;SDS011;55104;47.356;19.448;2023-06-14T07:25:55;7.70;;;2.90;;
68273;SDS011;55104;47.356;19.448;2023-06-14T07:28:57;11.55;;;2.80;;
68273;SDS011;55104;47.356;19.448;2023-06-14T07:31:59;8.17;;;2.97;;
68273;SDS011;55104;47.356;19.448;2023-06-14T07:35:01;8.65;;;2.50;;
68273;SDS011;55104;47.356;19.448;2023-06-14T07:38:03;8.25;;;2.60;;
68273;SDS011;55104;47.356;19.448;2023-06-14T07:41:05;6.55;;;2.20;;
68273;SDS011;55104;47.356;19.448;2023-06-14T07:44:07;8.07;;;2.80;;
68273;SDS011;55104;47.356;19.448;2023-06-14T07:47:09;7.07;;;2.50;;
68273;SDS011;55104;47.356;19.448;2023-06-14T07:50:11;5.97;;;2.00;;
68273;SDS011;55104;47.356;19.448;2023-06-14T07:53:15;7.50;;;2.42;;
68273;SDS011;55104;47.356;19.448;2023-06-14T07:56:17;8.18;;;1.95;;
68273;SDS011;55104;47.356;19.448;2023-06-14T07:59:19;6.57;;;2.25;;
68273;SDS011;55104;47.356;19.448;2023-06-14T08:02:22;10.67;;;2.53;;
68273;SDS011;55104;47.356;19.448;2023-06-14T08:05:24;7.10;;;2.50;;
68273;SDS011;55104;47.356;19.448;2023-06-14T08:08:27;7.40;;;2.63;;
68273;SDS011;55104;47.356;19.448;2023-06-14T08:11:29;5.57;;;1.80;;
68273;SDS011;55104;47.356;19.448;2023-06-14T08:14:31;6.68;;;2.30;;
68273;SDS011;55104;47.356;19.448;2023-06-14T08:17:33;5.20;;;1.93;;
68273;SDS011;55104;47.356;19.448;2023-06-14T08:20:37;5.78;;;1.92;;
68273;SDS011;55104;47.356;19.448;2023-06-14T08:23:39;7.00;;;2.53;;
68273;SDS011;55104;47.356;19.448;2023-06-14T08:26:41;8.02;;;2.13;;
68273;SDS011;55104;47.356;19.448;2023-06-14T08:29:43;6.65;;;2.40;;
68273;SDS011;55104;47.356;19.448;2023-06-14T08:32:45;7.20;;;2.20;;
68273;SDS011;55104;47.356;19.448;2023-06-14T08:35:54;6.95;;;2.22;;
68273;SDS011;55104;47.356;19.448;2023-06-14T08:38:56;6.82;;;2.15;;
68273;SDS011;55104;47.356;19.448;2023-06-14T08:41:58;6.68;;;2.03;;
68273;SDS011;55104;47.356;19.448;2023-06-14T08:45:04;5.70;;;1.92;;
68273;SDS011;55104;47.356;19.448;2023-06-14T08:48:06;6.00;;;2.00;;
68273;SDS011;55104;47.356;19.448;2023-06-14T08:51:09;6.82;;;2.00;;
68273;SDS011;55104;47.356;19.448;2023-06-14T08:54:13;6.88;;;2.17;;
68273;SDS011;55104;47.356;19.448;2023-06-14T08:57:17;8.43;;;2.10;;
68273;SDS011;55104;47.356;19.448;2023-06-14T09:00:19;5.97;;;1.92;;
68273;SDS011;55104;47.356;19.448;2023-06-14T09:03:23;5.40;;;1.80;;
68273;SDS011;55104;47.356;19.448;2023-06-14T09:06:31;6.43;;;1.70;;
68273;SDS011;55104;47.356;19.448;2023-06-14T09:09:38;6.13;;;2.00;;
68273;SDS011;55104;47.356;19.448;2023-06-14T09:12:48;5.28;;;1.70;;
68273;SDS011;55104;47.356;19.448;2023-06-14T09:15:50;5.55;;;2.15;;
68273;SDS011;55104;47.356;19.448;2023-06-14T09:18:53;5.37;;;1.80;;
68273;SDS011;55104;47.356;19.448;2023-06-14T09:21:55;4.78;;;1.50;;
68273;SDS011;55104;47.356;19.448;2023-06-14T09:24:57;6.40;;;2.30;;
68273;SDS011;55104;47.356;19.448;2023-06-14T09:28:00;4.18;;;1.25;;
68273;SDS011;55104;47.356;19.448;2023-06-14T09:31:02;5.82;;;1.77;;
68273;SDS011;55104;47.356;19.448;2023-06-14T09:34:04;7.60;;;2.33;;
68273;SDS011;55104;47.356;19.448;2023-06-14T09:37:06;8.57;;;2.30;;
68273;SDS011;55104;47.356;19.448;2023-06-14T09:40:08;5.30;;;1.75;;
68273;SDS011;55104;47.356;19.448;2023-06-14T09:43:11;5.80;;;1.77;;
68273;SDS011;55104;47.356;19.448;2023-06-14T09:46:13;5.63;;;1.90;;
68273;SDS011;55104;47.356;19.448;2023-06-14T09:49:15;6.13;;;1.70;;
68273;SDS011;55104;47.356;19.448;2023-06-14T09:52:18;5.38;;;1.50;;
68273;SDS011;55104;47.356;19.448;2023-06-14T09:55:21;7.45;;;1.90;;
68273;SDS011;55104;47.356;19.448;2023-06-14T09:58:23;5.53;;;1.75;;
68273;SDS011;55104;47.356;19.448;2023-06-14T10:01:30;5.43;;;1.67;;
68273;SDS011;55104;47.356;19.448;2023-06-14T10:04:32;5.77;;;2.07;;
68273;SDS011;55104;47.356;19.448;2023-06-14T10:07:40;6.70;;;2.03;;
68273;SDS011;55104;47.356;19.448;2023-06-14T10:10:46;6.53;;;2.03;;
68273;SDS011;55104;47.356;19.448;2023-06-14T10:13:49;6.07;;;2.00;;
68273;SDS011;55104;47.356;19.448;2023-06-14T10:23:37;5.72;;;1.85;;
68273;SDS011;55104;47.356;19.448;2023-06-14T10:26:53;5.35;;;1.65;;
68273;SDS011;55104;47.356;19.448;2023-06-14T10:30:04;7.93;;;1.80;;
68273;SDS011;55104;47.356;19.448;2023-06-14T10:33:09;5.55;;;1.50;;
68273;SDS011;55104;47.356;19.448;2023-06-14T10:39:38;7.88;;;1.60;;
68273;SDS011;55104;47.356;19.448;2023-06-14T10:42:52;5.68;;;1.77;;
68273;SDS011;55104;47.356;19.448;2023-06-14T10:49:18;4.50;;;1.63;;
68273;SDS011;55104;47.356;19.448;2023-06-14T10:52:25;4.60;;;1.37;;
68273;SDS011;55104;47.356;19.448;2023-06-14T10:55:30;5.38;;;1.60;;
68273;SDS011;55104;47.356;19.448;2023-06-14T10:58:37;5.32;;;1.77;;
68273;SDS011;55104;47.356;19.448;2023-06-14T11:01:58;6.50;;;1.60;;
68273;SDS011;55104;47.356;19.448;2023-06-14T11:05:09;6.35;;;1.75;;
68273;SDS011;55104;47.356;19.448;2023-06-14T11:11:37;5.22;;;1.30;;
68273;SDS011;55104;47.356;19.448;2023-06-14T11:14:40;5.15;;;1.42;;
68273;SDS011;55104;47.356;19.448;2023-06-14T11:17:51;4.95;;;1.33;;
68273;SDS011;55104;47.356;19.448;2023-06-14T11:20:58;4.88;;;1.50;;
68273;SDS011;55104;47.356;19.448;2023-06-14T11:24:00;4.97;;;1.37;;
68273;SDS011;55104;47.356;19.448;2023-06-14T11:27:02;5.95;;;1.52;;
68273;SDS011;55104;47.356;19.448;2023-06-14T11:30:06;4.43;;;1.42;;
68273;SDS011;55104;47.356;19.448;2023-06-14T11:33:10;6.20;;;1.60;;
68273;SDS011;55104;47.356;19.448;2023-06-14T11:36:13;4.28;;;1.40;;
68273;SDS011;55104;47.356;19.448;2023-06-14T11:39:15;4.97;;;1.57;;
68273;SDS011;55104;47.356;19.448;2023-06-14T11:42:18;4.95;;;1.60;;
68273;SDS011;55104;47.356;19.448;2023-06-14T11:45:20;5.00;;;1.77;;
68273;SDS011;55104;47.356;19.448;2023-06-14T11:48:22;7.03;;;1.60;;
68273;SDS011;55104;47.356;19.448;2023-06-14T11:51:24;5.10;;;1.50;;
68273;SDS011;55104;47.356;19.448;2023-06-14T11:54:27;5.30;;;1.70;;
68273;SDS011;55104;47.356;19.448;2023-06-14T11:57:29;5.85;;;1.55;;
68273;SDS011;55104;47.356;19.448;2023-06-14T12:00:31;6.30;;;1.95;;
68273;SDS011;55104;47.356;19.448;2023-06-14T12:03:33;4.82;;;1.60;;
68273;SDS011;55104;47.356;19.448;2023-06-14T12:06:36;6.20;;;1.80;;
68273;SDS011;55104;47.356;19.448;2023-06-14T12:09:41;4.77;;;1.60;;
68273;SDS011;55104;47.356;19.448;2023-06-14T12:12:46;5.72;;;1.63;;
68273;SDS011;55104;47.356;19.448;2023-06-14T12:15:53;5.03;;;1.58;;
68273;SDS011;55104;47.356;19.448;2023-06-14T12:18:59;5.07;;;1.50;;
68273;SDS011;55104;47.356;19.448;2023-06-14T12:22:03;5.28;;;1.50;;
68273;SDS011;55104;47.356;19.448;2023-06-14T12:25:06;5.53;;;1.50;;
68273;SDS011;55104;47.356;19.448;2023-06-14T12:28:11;4.75;;;1.40;;
68273;SDS011;55104;47.356;19.448;2023-06-14T12:31:14;5.15;;;1.58;;
68273;SDS011;55104;47.356;19.448;2023-06-14T12:34:17;4.97;;;1.63;;
68273;SDS011;55104;47.356;19.448;2023-06-14T12:37:19;4.45;;;1.42;;
68273;SDS011;55104;47.356;19.448;2023-06-14T12:40:21;4.93;;;1.33;;
68273;SDS011;55104;47.356;19.448;2023-06-14T12:43:23;4.43;;;1.50;;
68273;SDS011;55104;47.356;19.448;2023-06-14T12:46:25;4.63;;;1.40;;
68273;SDS011;55104;47.356;19.448;2023-06-14T12:49:28;7.03;;;1.73;;
68273;SDS011;55104;47.356;19.448;2023-06-14T12:52:30;5.00;;;1.50;;
68273;SDS011;55104;47.356;19.448;2023-06-14T12:55:32;5.07;;;1.63;;
68273;SDS011;55104;47.356;19.448;2023-06-14T12:58:34;6.00;;;1.48;;
68273;SDS011;55104;47.356;19.448;2023-06-14T13:01:37;4.82;;;1.60;;
68273;SDS011;55104;47.356;19.448;2023-06-14T13:04:40;5.95;;;1.67;;
68273;SDS011;55104;47.356;19.448;2023-06-14T13:07:42;5.40;;;1.60;;
68273;SDS011;55104;47.356;19.448;2023-06-14T13:10:44;4.73;;;1.57;;
68273;SDS011;55104;47.356;19.448;2023-06-14T13:13:46;6.05;;;1.67;;
68273;SDS011;55104;47.356;19.448;2023-06-14T13:16:48;5.13;;;1.52;;
68273;SDS011;55104;47.356;19.448;2023-06-14T13:19:51;5.88;;;1.88;;
68273;SDS011;55104;47.356;19.448;2023-06-14T13:22:53;5.55;;;1.48;;
68273;SDS011;55104;47.356;19.448;2023-06-14T13:25:55;4.77;;;1.50;;
68273;SDS011;55104;47.356;19.448;2023-06-14T13:28:57;5.82;;;1.80;;
68273;SDS011;55104;47.356;19.448;2023-06-14T13:31:59;4.97;;;1.58;;
68273;SDS011;55104;47.356;19.448;2023-06-14T13:35:02;5.10;;;1.50;;
68273;SDS011;55104;47.356;19.448;2023-06-14T13:38:05;5.43;;;1.60;;
68273;SDS011;55104;47.356;19.448;2023-06-14T13:41:07;6.00;;;1.53;;
68273;SDS011;55104;47.356;19.448;2023-06-14T13:44:09;6.63;;;1.77;;
68273;SDS011;55104;47.356;19.448;2023-06-14T13:47:17;5.55;;;1.85;;
68273;SDS011;55104;47.356;19.448;2023-06-14T13:50:19;6.07;;;1.63;;
68273;SDS011;55104;47.356;19.448;2023-06-14T13:53:22;5.10;;;1.50;;
68273;SDS011;55104;47.356;19.448;2023-06-14T13:56:24;6.37;;;1.70;;
68273;SDS011;55104;47.356;19.448;2023-06-14T13:59:26;5.75;;;1.70;;
68273;SDS011;55104;47.356;19.448;2023-06-14T14:02:28;5.30;;;1.60;;
68273;SDS011;55104;47.356;19.448;2023-06-14T14:05:31;5.80;;;1.60;;
68273;SDS011;55104;47.356;19.448;2023-06-14T14:08:33;5.53;;;1.73;;
68273;SDS011;55104;47.356;19.448;2023-06-14T14:11:35;7.10;;;1.80;;
68273;SDS011;55104;47.356;19.448;2023-06-14T14:14:37;6.03;;;1.80;;
68273;SDS011;55104;47.356;19.448;2023-06-14T14:17:39;5.47;;;1.80;;
68273;SDS011;55104;47.356;19.448;2023-06-14T14:20:41;7.10;;;2.03;;
68273;SDS011;55104;47.356;19.448;2023-06-14T14:23:43;5.32;;;1.80;;
68273;SDS011;55104;47.356;19.448;2023-06-14T14:26:47;6.57;;;2.07;;
68273;SDS011;55104;47.356;19.448;2023-06-14T14:29:50;7.10;;;1.60;;
68273;SDS011;55104;47.356;19.448;2023-06-14T14:32:53;6.00;;;1.80;;
68273;SDS011;55104;47.356;19.448;2023-06-14T14:35:55;6.95;;;1.92;;
68273;SDS011;55104;47.356;19.448;2023-06-14T14:38:57;5.88;;;1.77;;
68273;SDS011;55104;47.356;19.448;2023-06-14T14:41:59;5.40;;;1.67;;
68273;SDS011;55104;47.356;19.448;2023-06-14T14:45:01;5.63;;;1.67;;
68273;SDS011;55104;47.356;19.448;2023-06-14T14:48:04;5.50;;;1.73;;
68273;SDS011;55104;47.356;19.448;2023-06-14T14:51:07;5.28;;;1.85;;
68273;SDS011;55104;47.356;19.448;2023-06-14T14:54:09;6.05;;;1.85;;
68273;SDS011;55104;47.356;19.448;2023-06-14T14:57:12;5.03;;;1.33;;
68273;SDS011;55104;47.356;19.448;2023-06-14T15:00:14;6.68;;;2.00;;
68273;SDS011;55104;47.356;19.448;2023-06-14T15:03:17;8.30;;;2.28;;
68273;SDS011;55104;47.356;19.448;2023-06-14T15:06:19;6.65;;;1.70;;
68273;SDS011;55104;47.356;19.448;2023-06-14T15:09:21;4.38;;;1.60;;
68273;SDS011;55104;47.356;19.448;2023-06-14T15:12:23;5.57;;;1.80;;
68273;SDS011;55104;47.356;19.448;2023-06-14T15:15:25;6.20;;;1.75;;
68273;SDS011;55104;47.356;19.448;2023-06-14T15:18:27;5.75;;;1.80;;
68273;SDS011;55104;47.356;19.448;2023-06-14T15:21:29;6.28;;;1.90;;
68273;SDS011;55104;47.356;19.448;2023-06-14T15:24:31;6.45;;;1.90;;
68273;SDS011;55104;47.356;19.448;2023-06-14T15:27:44;4.90;;;1.83;;
68273;SDS011;55104;47.356;19.448;2023-06-14T15:30:46;6.28;;;1.80;;
68273;SDS011;55104;47.356;19.448;2023-06-14T15:33:48;6.95;;;2.30;;
68273;SDS011;55104;47.356;19.448;2023-06-14T15:36:50;6.45;;;2.10;;
68273;SDS011;55104;47.356;19.448;2023-06-14T15:39:52;6.95;;;2.30;;
68273;SDS011;55104;47.356;19.448;2023-06-14T15:42:54;5.33;;;1.80;;
68273;SDS011;55104;47.356;19.448;2023-06-14T15:45:56;5.53;;;1.90;;
68273;SDS011;55104;47.356;19.448;2023-06-14T15:48:58;6.47;;;2.00;;
68273;SDS011;55104;47.356;19.448;2023-06-14T15:52:00;6.53;;;1.80;;
68273;SDS011;55104;47.356;19.448;2023-06-14T15:55:03;5.93;;;2.00;;
68273;SDS011;55104;47.356;19.448;2023-06-14T15:58:05;5.93;;;1.83;;
68273;SDS011;55104;47.356;19.448;2023-06-14T16:01:07;5.82;;;1.85;;
68273;SDS011;55104;47.356;19.448;2023-06-14T16:04:09;5.70;;;1.73;;
68273;SDS011;55104;47.356;19.448;2023-06-14T16:07:11;8.57;;;1.98;;
68273;SDS011;55104;47.356;19.448;2023-06-14T16:10:15;6.47;;;2.42;;
68273;SDS011;55104;47.356;19.448;2023-06-14T16:13:18;7.73;;;2.53;;
68273;SDS011;55104;47.356;19.448;2023-06-14T16:16:20;6.55;;;2.00;;
68273;SDS011;55104;47.356;19.448;2023-06-14T16:19:22;6.78;;;2.03;;
68273;SDS011;55104;47.356;19.448;2023-06-14T16:22:25;5.35;;;1.98;;
68273;SDS011;55104;47.356;19.448;2023-06-14T16:25:27;6.57;;;2.28;;
68273;SDS011;55104;47.356;19.448;2023-06-14T16:28:30;6.17;;;1.73;;
68273;SDS011;55104;47.356;19.448;2023-06-14T16:31:33;6.18;;;1.73;;
68273;SDS011;55104;47.356;19.448;2023-06-14T16:34:35;5.53;;;1.77;;
68273;SDS011;55104;47.356;19.448;2023-06-14T16:37:38;8.18;;;2.15;;
68273;SDS011;55104;47.356;19.448;2023-06-14T16:40:40;5.80;;;1.98;;
68273;SDS011;55104;47.356;19.448;2023-06-14T16:43:42;7.17;;;1.83;;
68273;SDS011;55104;47.356;19.448;2023-06-14T16:46:44;6.97;;;1.60;;
68273;SDS011;55104;47.356;19.448;2023-06-14T16:49:47;8.25;;;2.30;;
68273;SDS011;55104;47.356;19.448;2023-06-14T16:52:49;8.60;;;1.73;;
68273;SDS011;55104;47.356;19.448;2023-06-14T16:55:51;5.50;;;1.80;;
68273;SDS011;55104;47.356;19.448;2023-06-14T16:58:54;5.20;;;1.30;;
68273;SDS011;55104;47.356;19.448;2023-06-14T17:02:02;8.00;;;1.70;;
68273;SDS011;55104;47.356;19.448;2023-06-14T17:05:08;7.22;;;1.67;;
68273;SDS011;55104;47.356;19.448;2023-06-14T17:08:10;8.25;;;2.05;;
68273;SDS011;55104;47.356;19.448;2023-06-14T17:11:12;12.77;;;2.58;;
68273;SDS011;55104;47.356;19.448;2023-06-14T17:14:14;7.30;;;2.07;;
68273;SDS011;55104;47.356;19.448;2023-06-14T17:17:16;14.45;;;2.30;;
68273;SDS011;55104;47.356;19.448;2023-06-14T17:20:18;6.03;;;2.00;;
68273;SDS011;55104;47.356;19.448;2023-06-14T17:23:23;5.90;;;1.70;;
68273;SDS011;55104;47.356;19.448;2023-06-14T17:26:25;8.98;;;2.35;;
68273;SDS011;55104;47.356;19.448;2023-06-14T17:29:27;7.97;;;2.30;;
68273;SDS011;55104;47.356;19.448;2023-06-14T17:32:29;10.27;;;2.53;;
68273;SDS011;55104;47.356;19.448;2023-06-14T17:35:31;8.25;;;2.50;;
68273;SDS011;55104;47.356;19.448;2023-06-14T17:38:33;7.90;;;2.10;;
68273;SDS011;55104;47.356;19.448;2023-06-14T17:41:36;7.05;;;2.58;;
68273;SDS011;55104;47.356;19.448;2023-06-14T17:44:38;7.30;;;2.60;;
68273;SDS011;55104;47.356;19.448;2023-06-14T17:47:40;7.43;;;2.42;;
68273;SDS011;55104;47.356;19.448;2023-06-14T17:50:42;10.20;;;3.20;;
68273;SDS011;55104;47.356;19.448;2023-06-14T17:53:45;8.68;;;2.90;;
68273;SDS011;55104;47.356;19.448;2023-06-14T17:56:48;6.65;;;2.22;;
68273;SDS011;55104;47.356;19.448;2023-06-14T17:59:50;7.67;;;2.30;;
68273;SDS011;55104;47.356;19.448;2023-06-14T18:02:52;6.38;;;2.50;;
68273;SDS011;55104;47.356;19.448;2023-06-14T18:05:55;9.00;;;2.20;;
68273;SDS011;55104;47.356;19.448;2023-06-14T18:08:59;6.70;;;2.00;;
68273;SDS011;55104;47.356;19.448;2023-06-14T18:12:02;10.48;;;2.47;;
68273;SDS011;55104;47.356;19.448;2023-06-14T18:15:04;6.83;;;1.90;;
68273;SDS011;55104;47.356;19.448;2023-06-14T18:18:07;6.72;;;1.83;;
68273;SDS011;55104;47.356;19.448;2023-06-14T18:21:09;6.88;;;2.45;;
68273;SDS011;55104;47.356;19.448;2023-06-14T18:24:12;5.05;;;1.67;;